Time;durP1;ratioP1;P1;durP2;ratioP2;P2;SDS_P1;SDS_P2;PMS_P1;PMS_P2;Temp;Humidity;BMP_temperature;BMP_pressure;BME280_temperature;BME280_humidity;BME280_pressure;Samples;Min_cycle;Max_cycle;Signal;HPM_P1;HPM_P2
2022/03/13 00:01:02;;;;;;;2.55;1.30;;;10.10;84.80;;;;;;5112769;27;20019;-81
2022/03/13 00:03:31;;;;;;;2.63;1.08;;;10.10;84.90;;;;;;5111032;28;20042;-81
2022/03/13 00:05:57;;;;;;;3.20;1.10;;;10.10;84.60;;;;;;5132362;27;20064;-82
2022/03/13 00:08:31;;;;;;;2.63;1.00;;;10.10;86.70;;;;;;5130762;27;20039;-82
2022/03/13 00:11:07;;;;;;;2.38;0.93;;;10.10;84.80;;;;;;5131054;27;20011;-81
2022/03/13 00:13:36;;;;;;;2.03;1.20;;;10.10;85.80;;;;;;5130814;27;20027;-81
2022/03/13 00:16:08;;;;;;;2.38;1.00;;;10.10;84.80;;;;;;5131017;27;20068;-81
2022/03/13 00:18:39;;;;;;;1.83;0.90;;;10.20;85.40;;;;;;5131229;27;20489;-81
2022/03/13 00:21:05;;;;;;;2.05;1.10;;;10.10;84.80;;;;;;5131231;28;20011;-81
2022/03/13 00:23:32;;;;;;;2.67;1.00;;;10.10;85.70;;;;;;5130865;27;20475;-81
2022/03/13 00:25:58;;;;;;;2.58;0.90;;;10.10;85.00;;;;;;5130635;27;20058;-82
2022/03/13 00:28:24;;;;;;;2.33;1.00;;;10.10;85.00;;;;;;5112253;27;20063;-81
2022/03/13 00:30:50;;;;;;;2.78;0.90;;;10.10;84.90;;;;;;5131054;27;20102;-81
2022/03/13 00:33:15;;;;;;;1.67;0.80;;;10.10;85.50;;;;;;5133127;27;20398;-81
2022/03/13 00:35:42;;;;;;;2.75;0.82;;;10.20;86.30;;;;;;5134466;27;20020;-81
2022/03/13 00:38:08;;;;;;;2.45;1.00;;;10.20;86.60;;;;;;5133567;27;20027;-81
2022/03/13 00:40:34;;;;;;;1.52;0.95;;;10.30;86.30;;;;;;5134963;27;20106;-81
2022/03/13 00:43:00;;;;;;;1.23;0.85;;;10.30;85.60;;;;;;5134807;27;20076;-81
2022/03/13 00:45:27;;;;;;;1.13;0.70;;;10.30;85.40;;;;;;5136131;27;20035;-81
2022/03/13 00:47:52;;;;;;;1.30;0.85;;;10.30;85.90;;;;;;5135495;27;20042;-81
2022/03/13 00:50:18;;;;;;;1.95;0.80;;;10.30;85.80;;;;;;5134145;27;20019;-81
2022/03/13 00:52:44;;;;;;;1.95;0.65;;;10.30;85.90;;;;;;5134651;27;20027;-81
2022/03/13 00:55:10;;;;;;;1.33;0.75;;;10.30;87.00;;;;;;5116266;27;20030;-81
2022/03/13 00:57:36;;;;;;;1.55;0.68;;;10.30;86.30;;;;;;5151484;27;20088;-81
2022/03/13 01:00:04;;;;;;;2.35;0.70;;;10.30;86.40;;;;;;5117907;27;20015;-81
2022/03/13 01:02:29;;;;;;;2.33;0.73;;;10.30;86.70;;;;;;5134478;27;20053;-81
2022/03/13 01:04:55;;;;;;;1.35;0.65;;;10.30;87.30;;;;;;5134160;27;20019;-81
2022/03/13 01:07:21;;;;;;;2.33;0.90;;;10.30;86.90;;;;;;5134585;27;20037;-82
2022/03/13 01:09:46;;;;;;;1.50;0.70;;;10.30;86.80;;;;;;5134373;27;20062;-81
2022/03/13 01:12:12;;;;;;;2.20;0.90;;;10.30;86.40;;;;;;5136476;27;20019;-82
2022/03/13 01:14:38;;;;;;;2.00;0.77;;;10.30;87.30;;;;;;5133992;27;20027;-82
2022/03/13 01:17:08;;;;;;;1.30;0.80;;;10.30;87.60;;;;;;5114285;27;20030;-81
2022/03/13 01:19:34;;;;;;;1.60;0.80;;;10.30;86.30;;;;;;5133746;27;20030;-82
2022/03/13 01:22:00;;;;;;;0.82;0.52;;;10.20;88.10;;;;;;5116069;27;20110;-81
2022/03/13 01:24:30;;;;;;;2.15;0.70;;;10.20;86.70;;;;;;5135333;27;20531;-81
2022/03/13 01:27:01;;;;;;;3.88;0.80;;;10.20;86.30;;;;;;5135557;27;20020;-81
2022/03/13 01:29:28;;;;;;;2.25;0.55;;;10.20;86.70;;;;;;5115251;27;20027;-81
2022/03/13 01:31:53;;;;;;;2.50;1.27;;;10.20;85.90;;;;;;5133794;27;20015;-81
2022/03/13 01:34:32;;;;;;;1.77;0.82;;;10.20;85.90;;;;;;5115208;27;20046;-81
2022/03/13 01:36:58;;;;;;;2.60;0.60;;;10.20;85.30;;;;;;5100433;27;20019;-81
2022/03/13 01:39:24;;;;;;;3.88;0.70;;;10.20;85.10;;;;;;5116727;27;20084;-81
2022/03/13 01:41:49;;;;;;;1.70;0.70;;;10.10;85.00;;;;;;5112450;28;20020;-81
2022/03/13 01:44:15;;;;;;;2.55;0.70;;;10.10;84.70;;;;;;5128168;27;20064;-81
2022/03/13 01:46:40;;;;;;;3.00;0.70;;;10.10;84.50;;;;;;5132284;27;20047;-81
2022/03/13 01:49:08;;;;;;;2.83;0.75;;;10.00;84.20;;;;;;5133139;27;20039;-81
2022/03/13 01:51:34;;;;;;;1.40;0.52;;;10.00;84.40;;;;;;5133934;27;20019;-82
2022/03/13 01:54:03;;;;;;;2.63;0.65;;;9.90;84.40;;;;;;5133307;27;20067;-82
2022/03/13 01:56:31;;;;;;;1.77;0.55;;;9.80;84.30;;;;;;5132080;27;20019;-81
2022/03/13 01:58:57;;;;;;;2.05;0.68;;;9.80;84.50;;;;;;5133399;27;20019;-81
2022/03/13 02:01:25;;;;;;;4.38;0.73;;;9.70;85.30;;;;;;5115073;27;20049;-81
2022/03/13 02:03:51;;;;;;;2.63;0.52;;;9.70;85.10;;;;;;5133170;27;20051;-82
2022/03/13 02:06:18;;;;;;;3.65;0.63;;;9.60;85.10;;;;;;5135721;27;20480;-81
2022/03/13 02:08:45;;;;;;;1.25;0.50;;;9.60;86.10;;;;;;5133415;27;20087;-82
2022/03/13 02:11:15;;;;;;;2.33;0.80;;;9.50;85.10;;;;;;5133194;27;20034;-81
2022/03/13 02:13:40;;;;;;;1.92;0.90;;;9.50;85.00;;;;;;5114644;27;20027;-81
2022/03/13 02:16:07;;;;;;;1.75;0.60;;;9.40;85.10;;;;;;5133136;27;20567;-81
2022/03/13 02:18:33;;;;;;;1.30;0.47;;;9.40;85.20;;;;;;5114971;27;20122;-81
2022/03/13 02:20:59;;;;;;;2.85;0.50;;;9.40;85.60;;;;;;5135069;27;20107;-81
2022/03/13 02:23:26;;;;;;;2.72;0.60;;;9.30;85.10;;;;;;5132893;27;20023;-82
2022/03/13 02:25:55;;;;;;;3.00;0.40;;;9.30;85.50;;;;;;5132860;27;20030;-81
2022/03/13 02:28:23;;;;;;;3.25;0.57;;;9.20;85.30;;;;;;5132871;27;20073;-81
2022/03/13 02:30:53;;;;;;;1.42;0.50;;;9.20;85.60;;;;;;5116621;27;20038;-81
2022/03/13 02:33:21;;;;;;;3.53;0.60;;;9.20;85.40;;;;;;5130924;27;20030;-82
2022/03/13 02:35:55;;;;;;;2.20;0.40;;;9.20;85.60;;;;;;5132991;27;20023;-82
2022/03/13 02:38:22;;;;;;;2.35;0.43;;;9.20;85.80;;;;;;5132534;27;20035;-82
2022/03/13 02:40:48;;;;;;;1.02;0.40;;;9.20;86.00;;;;;;5132788;27;20395;-81
2022/03/13 02:43:15;;;;;;;2.67;0.50;;;9.20;86.00;;;;;;5132713;27;20015;-81
2022/03/13 02:45:41;;;;;;;1.38;0.30;;;9.20;86.00;;;;;;5132174;27;20105;-82
2022/03/13 02:48:08;;;;;;;2.40;0.50;;;9.20;86.10;;;;;;5134650;27;20484;-81
2022/03/13 02:50:35;;;;;;;2.30;0.40;;;9.20;86.60;;;;;;5132326;27;20391;-82
2022/03/13 02:53:01;;;;;;;1.58;0.45;;;9.20;86.70;;;;;;5132204;27;20027;-82
2022/03/13 02:55:27;;;;;;;3.33;0.70;;;9.20;85.80;;;;;;5132460;27;20027;-81
2022/03/13 02:57:52;;;;;;;1.80;0.40;;;9.20;86.40;;;;;;5132027;27;20019;-82
2022/03/13 03:00:20;;;;;;;2.10;0.50;;;9.20;86.50;;;;;;5134313;27;20042;-82
2022/03/13 03:02:46;;;;;;;2.28;0.65;;;9.20;86.40;;;;;;5114403;27;20100;-82
2022/03/13 03:05:11;;;;;;;1.27;0.47;;;9.20;86.40;;;;;;5131166;27;20502;-82
2022/03/13 03:07:39;;;;;;;3.75;0.60;;;9.20;87.00;;;;;;5113099;27;20035;-82
2022/03/13 03:10:09;;;;;;;2.03;0.50;;;9.20;86.80;;;;;;5131981;27;20102;-82
2022/03/13 03:12:35;;;;;;;3.92;0.50;;;9.10;87.00;;;;;;5113640;27;20126;-82
2022/03/13 03:15:01;;;;;;;3.00;0.80;;;9.20;87.30;;;;;;5131249;27;20098;-82
2022/03/13 03:17:27;;;;;;;2.03;0.40;;;9.20;88.10;;;;;;5131306;27;20057;-82
2022/03/13 03:19:52;;;;;;;2.17;0.60;;;9.20;88.40;;;;;;5113087;27;20027;-82
2022/03/13 03:22:18;;;;;;;2.60;0.65;;;9.20;88.50;;;;;;5131547;27;20118;-82
2022/03/13 03:24:44;;;;;;;2.65;0.50;;;9.20;88.80;;;;;;5131310;27;20025;-82
2022/03/13 03:27:09;;;;;;;1.75;0.40;;;9.20;88.70;;;;;;5133283;27;20027;-82
2022/03/13 03:29:35;;;;;;;1.67;0.38;;;9.20;87.80;;;;;;5130784;27;20035;-82
2022/03/13 03:32:02;;;;;;;1.42;0.38;;;9.20;87.90;;;;;;5113051;27;20117;-82
2022/03/13 03:34:28;;;;;;;4.05;0.90;;;9.20;87.90;;;;;;5130902;27;20019;-82
2022/03/13 03:36:59;;;;;;;3.45;0.60;;;9.30;87.80;;;;;;5131103;27;20031;-82
2022/03/13 03:39:26;;;;;;;4.63;0.50;;;9.20;87.90;;;;;;5132358;27;20552;-83
2022/03/13 03:41:53;;;;;;;3.67;0.75;;;9.30;87.70;;;;;;5110118;28;20389;-83
2022/03/13 03:44:20;;;;;;;3.40;0.60;;;9.30;86.80;;;;;;5125697;27;20095;-84
2022/03/13 03:46:47;;;;;;;2.38;0.63;;;9.30;87.70;;;;;;5130792;27;20019;-82
2022/03/13 03:49:13;;;;;;;2.90;0.80;;;9.30;88.10;;;;;;5112315;27;20039;-82
2022/03/13 03:51:40;;;;;;;2.45;0.73;;;9.40;88.30;;;;;;5131167;27;20027;-82
2022/03/13 03:54:07;;;;;;;4.50;0.90;;;9.40;88.50;;;;;;5131750;27;20027;-82
2022/03/13 03:56:33;;;;;;;2.58;0.75;;;9.40;88.70;;;;;;5130716;27;20064;-82
2022/03/13 03:58:59;;;;;;;3.30;0.55;;;9.40;88.80;;;;;;5130235;27;20026;-82
2022/03/13 04:01:25;;;;;;;5.13;0.90;;;9.50;89.20;;;;;;5130616;27;20023;-82
2022/03/13 04:03:51;;;;;;;3.67;0.68;;;9.40;88.70;;;;;;5112497;27;20030;-82
2022/03/13 04:06:19;;;;;;;6.68;1.15;;;9.50;87.70;;;;;;5114566;27;20027;-81
2022/03/13 04:08:45;;;;;;;3.40;0.82;;;9.40;89.90;;;;;;5110276;27;20562;-82
2022/03/13 04:11:12;;;;;;;2.80;0.68;;;9.50;89.20;;;;;;5130366;27;20026;-82
2022/03/13 04:13:38;;;;;;;4.53;0.80;;;9.50;89.70;;;;;;5130208;27;20034;-82
2022/03/13 04:16:07;;;;;;;5.18;0.80;;;9.50;89.80;;;;;;5130568;27;20026;-81
2022/03/13 04:18:33;;;;;;;6.63;0.98;;;9.50;90.00;;;;;;5131010;27;20583;-82
2022/03/13 04:20:59;;;;;;;3.40;0.90;;;9.50;89.80;;;;;;5132473;27;20012;-82
2022/03/13 04:23:26;;;;;;;5.75;0.90;;;9.50;89.40;;;;;;5130485;27;20037;-82
2022/03/13 04:25:52;;;;;;;3.08;0.63;;;9.40;90.10;;;;;;5130435;27;20072;-82
2022/03/13 04:28:18;;;;;;;1.73;0.70;;;9.40;89.20;;;;;;5130086;27;20039;-81
2022/03/13 04:30:44;;;;;;;3.25;1.00;;;9.40;89.50;;;;;;5129958;27;20540;-81
2022/03/13 04:33:10;;;;;;;2.35;1.02;;;9.40;89.90;;;;;;5131715;27;20476;-82
2022/03/13 04:35:36;;;;;;;4.70;0.90;;;9.40;89.20;;;;;;5130295;27;20024;-82
2022/03/13 04:38:02;;;;;;;3.70;0.93;;;9.40;89.60;;;;;;5130338;27;20039;-82
2022/03/13 04:40:27;;;;;;;2.45;0.88;;;9.40;89.50;;;;;;5130629;27;20022;-82
2022/03/13 04:42:53;;;;;;;3.63;0.95;;;9.40;90.20;;;;;;5129967;27;20020;-82
2022/03/13 04:45:19;;;;;;;2.78;0.95;;;9.40;89.70;;;;;;5132358;27;20049;-82
2022/03/13 04:47:45;;;;;;;3.20;0.77;;;9.50;90.10;;;;;;5129180;27;20023;-81
2022/03/13 04:50:11;;;;;;;2.10;0.80;;;9.50;90.10;;;;;;5130032;27;20030;-81
2022/03/13 04:52:37;;;;;;;1.55;0.70;;;9.50;90.00;;;;;;5130022;27;20035;-81
2022/03/13 04:55:04;;;;;;;2.03;0.80;;;9.50;90.00;;;;;;5110608;28;20074;-81
2022/03/13 04:57:30;;;;;;;1.58;0.70;;;9.50;90.10;;;;;;5131005;27;20118;-81
2022/03/13 04:59:56;;;;;;;3.13;0.73;;;9.50;90.20;;;;;;5131478;27;20555;-81
2022/03/13 05:02:21;;;;;;;2.67;0.73;;;9.50;90.20;;;;;;5129827;28;20030;-81
2022/03/13 05:04:47;;;;;;;3.95;0.90;;;9.60;90.10;;;;;;5111534;28;20019;-81
2022/03/13 05:07:13;;;;;;;2.85;0.88;;;9.60;90.10;;;;;;5112039;27;20066;-81
2022/03/13 05:09:39;;;;;;;2.38;0.85;;;9.60;90.20;;;;;;5112247;28;20448;-81
2022/03/13 05:12:08;;;;;;;2.35;0.80;;;9.50;90.70;;;;;;5130278;27;20023;-81
2022/03/13 05:14:34;;;;;;;2.13;0.80;;;9.50;90.20;;;;;;5111526;27;20015;-82
2022/03/13 05:16:59;;;;;;;2.90;0.90;;;9.50;90.20;;;;;;5129789;27;20031;-81
2022/03/13 05:19:25;;;;;;;2.42;0.95;;;9.50;90.20;;;;;;5130312;27;20491;-82
2022/03/13 05:21:51;;;;;;;1.85;1.00;;;9.50;90.40;;;;;;5134050;27;20030;-82
2022/03/13 05:24:16;;;;;;;3.70;0.88;;;9.50;90.30;;;;;;5136083;27;20027;-82
2022/03/13 05:26:42;;;;;;;3.60;1.00;;;9.60;90.80;;;;;;5133086;27;20031;-82
2022/03/13 05:29:09;;;;;;;3.47;0.95;;;9.50;90.20;;;;;;5114830;27;20031;-83
2022/03/13 05:31:34;;;;;;;2.20;0.80;;;9.50;90.50;;;;;;5133411;27;20066;-82
2022/03/13 05:34:00;;;;;;;4.45;0.98;;;9.50;90.30;;;;;;5115399;27;20483;-82
2022/03/13 05:36:26;;;;;;;2.58;0.90;;;9.50;90.60;;;;;;5116253;27;20102;-82
2022/03/13 05:38:51;;;;;;;3.13;1.10;;;9.50;90.30;;;;;;5116990;27;20114;-82
2022/03/13 05:41:20;;;;;;;4.38;1.00;;;9.50;90.50;;;;;;5132929;27;20495;-82
2022/03/13 05:43:46;;;;;;;2.65;1.00;;;9.50;90.70;;;;;;5133506;27;20046;-82
2022/03/13 05:46:12;;;;;;;2.42;0.80;;;9.60;91.00;;;;;;5133068;27;20081;-82
2022/03/13 05:48:39;;;;;;;4.93;1.20;;;9.60;90.60;;;;;;5114903;27;20510;-82
2022/03/13 05:51:05;;;;;;;3.45;1.00;;;9.60;90.70;;;;;;5115738;27;20012;-82
2022/03/13 05:53:30;;;;;;;4.75;1.15;;;9.60;90.60;;;;;;5114125;27;20027;-82
2022/03/13 05:55:56;;;;;;;4.07;1.00;;;9.60;90.50;;;;;;5114516;27;20029;-82
2022/03/13 05:58:22;;;;;;;2.45;0.90;;;9.60;90.40;;;;;;5132820;27;20485;-82
2022/03/13 06:00:54;;;;;;;4.35;1.13;;;9.60;90.80;;;;;;5114939;27;20059;-82
2022/03/13 06:03:21;;;;;;;3.88;1.63;;;9.60;90.50;;;;;;5130522;27;20019;-82
2022/03/13 06:05:48;;;;;;;2.95;0.82;;;9.60;90.70;;;;;;5115189;27;20067;-82
2022/03/13 06:08:14;;;;;;;3.55;1.15;;;9.60;90.90;;;;;;5132359;27;20034;-82
2022/03/13 06:10:39;;;;;;;5.75;1.15;;;9.70;90.70;;;;;;5114351;27;20031;-82
2022/03/13 06:13:05;;;;;;;5.53;1.27;;;9.70;91.20;;;;;;5132586;27;20034;-82
2022/03/13 06:15:31;;;;;;;3.75;0.93;;;9.70;90.60;;;;;;5115063;27;20031;-82
2022/03/13 06:17:58;;;;;;;2.85;0.93;;;9.70;91.00;;;;;;5134503;27;20110;-82
2022/03/13 06:20:23;;;;;;;2.88;0.95;;;9.70;91.30;;;;;;5132775;27;20020;-82
2022/03/13 06:22:49;;;;;;;3.28;1.08;;;9.70;90.90;;;;;;5132121;27;20030;-82
2022/03/13 06:25:16;;;;;;;2.72;0.70;;;9.60;90.70;;;;;;5113996;27;20026;-82
2022/03/13 06:27:43;;;;;;;4.65;1.00;;;9.60;90.80;;;;;;5113949;27;20061;-82
2022/03/13 06:30:16;;;;;;;5.70;0.80;;;9.60;90.80;;;;;;5133655;27;20020;-82
2022/03/13 06:32:53;;;;;;;2.42;0.60;;;9.60;90.60;;;;;;5113058;27;20059;-82
2022/03/13 06:35:21;;;;;;;4.35;0.68;;;9.50;90.50;;;;;;5132001;27;20102;-82
2022/03/13 06:37:48;;;;;;;4.22;0.80;;;9.50;90.60;;;;;;5132344;27;20114;-82
2022/03/13 06:40:18;;;;;;;4.25;0.70;;;9.50;90.60;;;;;;5132159;27;20047;-82
2022/03/13 06:42:44;;;;;;;3.40;0.73;;;9.50;90.40;;;;;;5113603;27;20486;-82
2022/03/13 06:45:11;;;;;;;2.85;0.70;;;9.50;90.50;;;;;;5115584;27;20584;-82
2022/03/13 06:47:43;;;;;;;3.33;0.60;;;9.50;90.20;;;;;;5131816;27;20039;-82
2022/03/13 06:50:09;;;;;;;3.30;0.65;;;9.40;90.30;;;;;;5132387;27;20012;-82
2022/03/13 06:52:35;;;;;;;1.98;0.40;;;9.40;90.30;;;;;;5131292;27;20391;-82
2022/03/13 06:55:02;;;;;;;2.35;0.57;;;9.30;89.80;;;;;;5131865;27;20023;-82
2022/03/13 06:57:27;;;;;;;1.45;0.40;;;9.30;90.10;;;;;;5114885;27;20019;-83
2022/03/13 06:59:54;;;;;;;2.58;0.47;;;9.30;90.30;;;;;;5132412;27;20023;-82
2022/03/13 07:02:19;;;;;;;3.47;0.88;;;9.30;90.30;;;;;;5113104;27;20027;-82
2022/03/13 07:04:45;;;;;;;3.50;0.82;;;9.30;90.20;;;;;;5113374;27;20398;-82
2022/03/13 07:07:10;;;;;;;2.83;0.85;;;9.30;90.40;;;;;;5129881;27;20027;-82
2022/03/13 07:09:36;;;;;;;2.60;0.45;;;9.30;90.00;;;;;;5131749;27;20035;-82
2022/03/13 07:12:04;;;;;;;2.50;0.55;;;9.20;90.00;;;;;;5115234;27;20102;-83
2022/03/13 07:14:30;;;;;;;3.88;0.60;;;9.20;90.10;;;;;;5131321;27;20023;-82
2022/03/13 07:16:56;;;;;;;1.98;0.50;;;9.20;90.30;;;;;;5131122;27;20030;-83
2022/03/13 07:19:22;;;;;;;2.90;0.60;;;9.20;90.30;;;;;;5131371;27;20047;-83
2022/03/13 07:21:48;;;;;;;5.20;0.80;;;9.20;90.30;;;;;;5114693;27;20054;-83
2022/03/13 07:24:13;;;;;;;4.88;0.75;;;9.30;90.50;;;;;;5133936;27;20383;-83
2022/03/13 07:26:39;;;;;;;2.38;0.60;;;9.30;90.30;;;;;;5113510;27;20027;-83
2022/03/13 07:29:05;;;;;;;3.95;0.88;;;9.30;90.30;;;;;;5131606;27;20031;-83
2022/03/13 07:31:31;;;;;;;4.55;0.75;;;9.30;90.50;;;;;;5131917;27;20023;-83
2022/03/13 07:33:57;;;;;;;5.68;0.80;;;9.40;90.70;;;;;;5131774;27;20038;-83
2022/03/13 07:36:23;;;;;;;3.45;0.60;;;9.40;90.30;;;;;;5114195;27;20030;-83
2022/03/13 07:38:49;;;;;;;4.00;0.73;;;9.40;90.40;;;;;;5132530;27;20379;-82
2022/03/13 07:41:15;;;;;;;5.53;0.90;;;9.50;90.60;;;;;;5131559;27;20031;-83
2022/03/13 07:43:40;;;;;;;3.00;0.70;;;9.50;90.20;;;;;;5130471;27;20369;-83
2022/03/13 07:46:06;;;;;;;3.22;0.60;;;9.50;90.50;;;;;;5093019;28;20535;-83
2022/03/13 07:48:34;;;;;;;3.60;0.95;;;9.60;90.40;;;;;;5089794;28;20203;-83
2022/03/13 07:51:04;;;;;;;4.32;0.77;;;9.60;90.40;;;;;;5092259;28;20269;-83
2022/03/13 07:53:31;;;;;;;3.58;0.82;;;9.70;90.30;;;;;;5090460;28;20024;-83
2022/03/13 07:55:56;;;;;;;3.35;0.90;;;9.70;90.40;;;;;;5090424;28;20085;-83
2022/03/13 07:58:22;;;;;;;3.25;0.70;;;9.70;90.60;;;;;;5090575;28;20028;-83
2022/03/13 08:00:49;;;;;;;5.82;0.70;;;9.70;90.50;;;;;;5074486;28;20020;-82
2022/03/13 08:03:16;;;;;;;4.70;0.90;;;9.70;90.60;;;;;;5091294;28;20090;-82
2022/03/13 08:05:41;;;;;;;2.88;0.80;;;9.70;90.40;;;;;;5090039;28;20563;-82
2022/03/13 08:08:07;;;;;;;6.70;0.90;;;9.80;90.70;;;;;;5088907;28;20116;-83
2022/03/13 08:10:32;;;;;;;5.65;1.15;;;9.80;90.40;;;;;;5090279;28;20408;-83
2022/03/13 08:12:58;;;;;;;6.78;1.00;;;9.90;90.60;;;;;;5090361;28;20028;-82
2022/03/13 08:15:24;;;;;;;4.65;0.90;;;9.80;90.70;;;;;;5090470;28;20024;-83
2022/03/13 08:17:49;;;;;;;3.42;0.80;;;9.90;90.70;;;;;;5090909;28;20426;-83
2022/03/13 08:20:15;;;;;;;3.65;0.70;;;9.90;90.60;;;;;;5088587;28;20020;-83
2022/03/13 08:22:41;;;;;;;4.88;0.98;;;9.90;90.70;;;;;;5090202;28;20020;-83
2022/03/13 08:25:07;;;;;;;3.50;0.80;;;10.00;90.80;;;;;;5088829;28;20035;-83
2022/03/13 08:27:34;;;;;;;3.88;0.82;;;10.10;91.00;;;;;;5090431;28;20123;-82
2022/03/13 08:30:00;;;;;;;2.05;0.70;;;10.10;90.70;;;;;;5091981;28;20028;-83
2022/03/13 08:32:25;;;;;;;2.75;0.90;;;10.10;90.70;;;;;;5089402;28;20091;-83
2022/03/13 08:34:52;;;;;;;4.40;1.08;;;10.10;90.50;;;;;;5089638;28;20048;-83
2022/03/13 08:37:17;;;;;;;3.88;0.90;;;10.20;90.50;;;;;;5090183;28;20110;-83
2022/03/13 08:39:43;;;;;;;4.10;1.10;;;10.30;90.70;;;;;;5090096;28;20115;-83
2022/03/13 08:42:09;;;;;;;2.78;1.00;;;10.30;90.60;;;;;;5092111;28;20477;-83
2022/03/13 08:44:35;;;;;;;7.13;1.20;;;10.30;90.70;;;;;;5094583;27;20032;-83
2022/03/13 08:47:01;;;;;;;3.33;1.13;;;10.30;90.40;;;;;;5130690;27;20114;-83
2022/03/13 08:49:27;;;;;;;4.70;1.05;;;10.30;90.50;;;;;;5111942;28;20035;-83
2022/03/13 08:51:54;;;;;;;5.70;0.90;;;10.40;90.60;;;;;;5130850;28;20023;-83
2022/03/13 08:54:20;;;;;;;3.60;0.95;;;10.40;90.40;;;;;;5133221;27;20071;-83
2022/03/13 08:56:49;;;;;;;4.00;0.82;;;10.40;90.40;;;;;;5133702;27;20023;-83
2022/03/13 08:59:15;;;;;;;1.88;0.50;;;10.50;90.60;;;;;;5116144;27;20103;-83
2022/03/13 09:01:42;;;;;;;2.75;0.88;;;10.50;90.60;;;;;;5116219;27;20035;-82
2022/03/13 09:04:08;;;;;;;3.47;0.82;;;10.60;90.40;;;;;;5133061;27;20473;-83
2022/03/13 09:06:33;;;;;;;10.68;3.58;;;10.60;90.40;;;;;;5134964;27;20074;-83
2022/03/13 09:08:59;;;;;;;3.40;1.83;;;10.70;90.50;;;;;;5136439;27;20063;-83
2022/03/13 09:11:25;;;;;;;3.63;1.27;;;10.70;90.50;;;;;;5134611;27;20456;-82
2022/03/13 09:13:50;;;;;;;4.30;1.17;;;10.70;90.30;;;;;;5115877;27;20019;-83
2022/03/13 09:16:17;;;;;;;5.32;0.93;;;10.70;90.50;;;;;;5134472;27;20019;-82
2022/03/13 09:18:42;;;;;;;3.00;1.17;;;10.80;90.50;;;;;;5115585;27;20419;-83
2022/03/13 09:21:08;;;;;;;2.28;0.80;;;10.80;90.60;;;;;;5118211;27;20019;-83
2022/03/13 09:23:34;;;;;;;4.40;1.00;;;10.90;90.50;;;;;;5115841;27;20395;-83
2022/03/13 09:25:59;;;;;;;5.07;1.08;;;10.90;90.40;;;;;;5134042;27;20026;-83
2022/03/13 09:28:26;;;;;;;3.92;1.17;;;11.00;90.40;;;;;;5134151;27;20023;-83
2022/03/13 09:30:52;;;;;;;2.88;0.80;;;11.00;90.30;;;;;;5134885;27;20077;-83
2022/03/13 09:33:17;;;;;;;4.03;0.90;;;11.00;90.20;;;;;;5117637;27;20055;-83
2022/03/13 09:35:43;;;;;;;2.50;0.70;;;11.10;90.60;;;;;;5115599;27;20038;-83
2022/03/13 09:38:09;;;;;;;5.75;0.80;;;11.10;90.30;;;;;;5134052;27;20058;-83
2022/03/13 09:40:34;;;;;;;2.83;0.80;;;11.20;90.10;;;;;;5133946;27;20390;-82
2022/03/13 09:43:02;;;;;;;3.72;0.98;;;11.20;90.10;;;;;;5133163;27;20023;-82
2022/03/13 09:45:27;;;;;;;3.15;0.88;;;11.30;90.00;;;;;;5134932;27;20039;-83
2022/03/13 09:47:54;;;;;;;4.30;0.98;;;11.30;89.80;;;;;;5134248;27;20054;-84
2022/03/13 09:50:21;;;;;;;3.92;0.75;;;11.30;89.40;;;;;;5115346;27;20079;-83
2022/03/13 09:52:48;;;;;;;4.72;1.15;;;11.40;89.60;;;;;;5115321;27;20049;-83
2022/03/13 09:55:15;;;;;;;3.47;0.80;;;11.30;89.10;;;;;;5133692;27;20019;-83
2022/03/13 09:57:42;;;;;;;4.43;0.85;;;11.30;89.40;;;;;;5115381;27;20084;-83
2022/03/13 10:00:13;;;;;;;4.18;1.30;;;11.50;90.00;;;;;;5135377;27;20034;-83
2022/03/13 10:02:40;;;;;;;3.92;1.20;;;11.60;89.80;;;;;;5133388;27;20030;-83
2022/03/13 10:05:08;;;;;;;4.68;1.40;;;11.70;89.50;;;;;;5114807;27;20436;-83
2022/03/13 10:07:56;;;;;;;3.53;1.20;;;11.80;89.20;;;;;;5132154;27;20134;-83
2022/03/13 10:10:23;;;;;;;6.68;1.38;;;11.90;88.60;;;;;;5133370;27;20031;-83
2022/03/13 10:12:49;;;;;;;4.68;1.55;;;11.90;88.80;;;;;;5114824;27;20015;-83
2022/03/13 10:15:15;;;;;;;5.55;1.25;;;11.90;87.90;;;;;;5133484;27;20475;-83
2022/03/13 10:17:41;;;;;;;5.88;1.60;;;12.00;87.90;;;;;;5114500;27;20513;-85
2022/03/13 10:20:27;;;;;;;7.03;1.85;;;12.10;88.20;;;;;;5132703;27;20031;-84
2022/03/13 10:23:01;;;;;;;4.35;1.40;;;12.20;86.80;;;;;;5134230;27;20031;-84
2022/03/13 10:25:39;;;;;;;5.57;1.45;;;12.30;87.90;;;;;;5132271;27;20026;-84
2022/03/13 10:28:24;;;;;;;5.70;1.10;;;12.30;87.30;;;;;;5128516;27;20035;-83
2022/03/13 10:30:59;;;;;;;4.35;1.40;;;12.40;87.30;;;;;;5116273;27;20024;-84
2022/03/13 10:33:49;;;;;;;5.95;1.20;;;12.50;86.70;;;;;;5112231;27;20391;-84
2022/03/13 10:36:17;;;;;;;6.93;1.60;;;12.50;85.60;;;;;;5115291;27;20514;-84
2022/03/13 10:38:44;;;;;;;4.97;1.13;;;12.50;85.20;;;;;;5132301;27;20034;-84
2022/03/13 10:41:12;;;;;;;6.20;1.60;;;12.60;85.50;;;;;;5131949;27;20027;-84
2022/03/13 10:43:51;;;;;;;3.90;1.02;;;12.60;85.80;;;;;;5113550;27;20061;-84
2022/03/13 10:46:36;;;;;;;4.30;1.00;;;12.70;85.30;;;;;;5113671;27;20130;-83
2022/03/13 10:49:04;;;;;;;4.30;1.13;;;12.80;85.10;;;;;;5121972;27;20101;-84
2022/03/13 10:51:45;;;;;;;8.82;1.58;;;12.80;84.40;;;;;;5104120;27;20669;-84
2022/03/13 10:54:28;;;;;;;8.38;1.40;;;12.80;84.40;;;;;;5120483;27;20027;-84
2022/03/13 10:57:07;;;;;;;4.87;1.17;;;12.60;83.90;;;;;;5124459;27;20027;-84
2022/03/13 10:59:33;;;;;;;6.00;1.33;;;12.70;85.10;;;;;;5116871;27;20034;-84
2022/03/13 11:02:14;;;;;;;4.97;1.10;;;12.80;82.90;;;;;;5112130;27;20046;-85
2022/03/13 11:04:51;;;;;;;8.20;1.23;;;12.80;82.00;;;;;;5117751;27;20038;-84
2022/03/13 11:07:19;;;;;;;7.97;1.50;;;12.80;82.40;;;;;;5124725;27;20019;-84
2022/03/13 11:09:45;;;;;;;5.80;1.52;;;12.80;82.90;;;;;;5139287;27;20102;-83
2022/03/13 11:12:17;;;;;;;3.63;1.48;;;12.80;81.10;;;;;;5148485;27;20447;-83
2022/03/13 11:14:49;;;;;;;5.50;1.30;;;12.70;80.30;;;;;;5114012;27;20423;-83
2022/03/13 11:17:17;;;;;;;6.97;1.50;;;12.80;80.70;;;;;;5142303;27;20019;-83
2022/03/13 11:19:45;;;;;;;6.25;1.45;;;12.90;80.30;;;;;;5120480;27;20034;-83
2022/03/13 11:22:11;;;;;;;6.22;1.30;;;12.90;80.70;;;;;;5119010;27;20106;-83
2022/03/13 11:24:40;;;;;;;8.40;1.58;;;12.90;80.20;;;;;;5148594;27;20588;-83
2022/03/13 11:27:10;;;;;;;5.53;1.50;;;12.80;79.80;;;;;;5118403;27;20050;-82
2022/03/13 11:29:48;;;;;;;9.25;2.03;;;12.90;78.90;;;;;;5137958;27;20038;-83
2022/03/13 11:32:37;;;;;;;4.72;1.30;;;13.00;79.90;;;;;;5130064;27;20026;-82
2022/03/13 11:35:11;;;;;;;8.48;1.38;;;13.10;80.30;;;;;;5135508;27;20069;-83
2022/03/13 11:37:38;;;;;;;6.88;1.20;;;13.30;79.70;;;;;;5110408;27;20031;-83
2022/03/13 11:40:05;;;;;;;6.53;1.38;;;13.50;77.70;;;;;;5106766;27;20081;-83
2022/03/13 11:42:53;;;;;;;7.78;1.30;;;13.40;77.30;;;;;;5137160;27;20038;-84
2022/03/13 11:45:31;;;;;;;6.75;1.77;;;13.50;79.70;;;;;;5138579;27;20057;-84
2022/03/13 11:48:19;;;;;;;6.03;1.52;;;13.60;78.40;;;;;;5144926;27;20031;-83
2022/03/13 11:50:50;;;;;;;6.30;1.50;;;13.60;76.60;;;;;;5132317;27;20031;-83
2022/03/13 11:53:20;;;;;;;6.47;1.50;;;13.60;76.00;;;;;;5123499;27;20019;-83
2022/03/13 11:56:01;;;;;;;9.10;1.80;;;13.70;76.20;;;;;;5138160;27;20027;-83
2022/03/13 11:58:46;;;;;;;6.50;1.33;;;13.70;76.80;;;;;;5118227;27;20092;-83
2022/03/13 12:01:31;;;;;;;9.88;2.08;;;13.70;74.00;;;;;;5116508;27;20026;-84
2022/03/13 12:04:03;;;;;;;5.05;1.30;;;13.70;75.40;;;;;;5111024;27;20437;-83
2022/03/13 12:06:52;;;;;;;7.57;1.50;;;13.70;73.60;;;;;;5129939;27;20027;-83
2022/03/13 12:09:30;;;;;;;5.28;1.13;;;13.70;72.70;;;;;;5135509;27;20508;-84
2022/03/13 12:11:55;;;;;;;6.13;1.40;;;13.70;73.90;;;;;;5155322;27;20452;-83
2022/03/13 12:14:41;;;;;;;7.15;1.30;;;13.80;73.70;;;;;;5114485;27;20023;-84
2022/03/13 12:17:08;;;;;;;5.97;1.42;;;13.90;74.10;;;;;;5110734;27;20018;-84
2022/03/13 12:19:39;;;;;;;8.45;1.38;;;13.90;70.70;;;;;;5119387;28;20495;-83
2022/03/13 12:22:05;;;;;;;6.45;1.48;;;13.70;71.50;;;;;;5138403;27;20015;-84
2022/03/13 12:24:32;;;;;;;6.25;1.40;;;13.80;73.30;;;;;;5148508;27;20034;-83
2022/03/13 12:27:01;;;;;;;8.60;1.60;;;13.90;71.70;;;;;;5134306;27;20498;-83
2022/03/13 12:29:30;;;;;;;7.53;1.45;;;13.90;70.40;;;;;;5141670;27;20514;-83
2022/03/13 12:31:57;;;;;;;7.00;1.60;;;13.70;68.50;;;;;;5117758;27;20034;-84
2022/03/13 12:34:31;;;;;;;6.10;1.33;;;13.60;68.80;;;;;;5131920;27;20053;-84
2022/03/13 12:37:00;;;;;;;6.60;1.50;;;13.60;70.30;;;;;;5122326;27;20016;-83
2022/03/13 12:39:27;;;;;;;5.82;1.52;;;13.70;69.30;;;;;;5133155;27;20026;-83
2022/03/13 12:42:00;;;;;;;5.25;1.20;;;13.60;68.30;;;;;;5140884;27;20049;-83
2022/03/13 12:44:30;;;;;;;6.35;1.67;;;13.50;69.10;;;;;;5133158;27;20045;-83
2022/03/13 12:46:56;;;;;;;7.55;1.65;;;13.50;69.20;;;;;;5131438;27;20102;-83
2022/03/13 12:49:36;;;;;;;6.20;1.50;;;13.40;68.30;;;;;;5145480;27;20038;-83
2022/03/13 12:52:02;;;;;;;8.07;2.05;;;13.30;69.50;;;;;;5101147;27;20031;-82
2022/03/13 12:54:30;;;;;;;10.00;2.28;;;13.20;68.80;;;;;;5116794;27;20029;-83
2022/03/13 12:57:05;;;;;;;9.38;3.28;;;13.00;66.20;;;;;;5130966;27;20480;-83